Mobridge Municipal Airport Mobridge US
ICAO: KMBG
IATA: MBG
Category: Medium
Scheduled Services: No

Elevation: 1716 ft
TransAlt. 18000 ft.

Airport Communications:
ASOS:121.425
HURON RDO:122.35
CTAF/UNICOM:122.8

KMBG Zoom In..

If you have problems with the map follow the link
https://www.worldairports.se/pages/airport.php?
ICAO=KMBG

Runways:

(A) RW 12 length 4410 ft width 75 ft
---- / hdg 118

(B) RW 17 length 2399 ft width 250 ft
---- / hdg 171

(C) RW 30 length 4410 ft width 75 ft
---- / hdg 298

(D) RW 35 length 2399 ft width 250 ft
---- / hdg 351

Location; KMBG
Day. 08 / Time. 12.52 Zulu
* Altimeter: 29.72
* Temperature: -03° c. -26.6°f.
* Wind from: 040° Speed 10 kn with Gusts up to 16 kn.
Dewpoint: -05° c.
Visibility: 4 Statute Miles.
Clouds: Broken 300 ft.
Conditions: Mist.

KMBG 081252Z AUTO 04010G16KT 4SM BR BKN003 M03/M05 A2972 RMK AO2 SLP087 T10331050


Wind From 040°
Speed 10 kn.

 
 
jpsmedia worldairports.se 2019   terms of use